Time;durP1;ratioP1;P1;durP2;ratioP2;P2;SDS_P1;SDS_P2;PMS_P1;PMS_P2;Temp;Humidity;BMP_temperature;BMP_pressure;BME280_temperature;BME280_humidity;BME280_pressure;Samples;Min_cycle;Max_cycle;Signal;HPM_P1;HPM_P2
2024/02/07 03:38:45;;;;;;;7.82;2.40;;;;;;;;;;4952268;24;20082;-83
2024/02/07 03:48:01;;;;;;;10.20;1.80;;;;;;;;;;4687981;30;20121;-83
2024/02/07 03:50:47;;;;;;;;;;;;;;;;;;;;;
2024/02/07 03:53:30;;;;;;;9.73;2.90;;;;;;;;;;4708997;30;20063;-83
2024/02/07 03:56:20;;;;;;;11.57;3.08;;;;;;;;;;4700247;30;21068;-84
2024/02/07 03:58:57;;;;;;;8.52;2.53;;;;;;;;;;4694360;30;20195;-83
2024/02/07 06:28:27;;;;;;;12.15;3.78;;;;;;;;;;4755448;29;20076;-84
2024/02/07 06:39:20;;;;;;;8.70;3.55;;;;;;;;;;3923281;28;20129;-82
2024/02/07 06:41:46;;;;;;;12.95;4.43;;;;;;;;;;4735857;30;20439;-81
2024/02/07 06:44:13;;;;;;;23.00;5.25;;;;;;;;;;4752105;30;20048;-81
2024/02/07 06:46:42;;;;;;;15.10;3.45;;;;;;;;;;4736614;30;20028;-82
2024/02/07 06:49:08;;;;;;;10.63;4.15;;;;;;;;;;4746593;30;20044;-84
2024/02/07 06:51:34;;;;;;;14.48;5.30;;;;;;;;;;4732446;30;20441;-83
2024/02/07 06:54:00;;;;;;;;;;;;;;;;;;4750881;30;20051;-84
2024/02/07 06:56:26;;;;;;;14.38;4.15;;;;;;;;;;4731404;30;19910;-83
2024/02/07 06:58:52;;;;;;;15.55;4.50;;;;;;;;;;4744683;30;20048;-84
2024/02/07 07:01:18;;;;;;;13.82;5.07;;;;;;;;;;4747950;30;20431;-81
2024/02/07 07:03:46;;;;;;;13.45;4.78;;;;;;;;;;4733286;30;20040;-84
2024/02/07 07:06:14;;;;;;;26.40;6.57;;;;;;;;;;4729473;30;20044;-85
2024/02/07 07:08:40;;;;;;;28.05;6.32;;;;;;;;;;4725938;30;20045;-85
2024/02/07 07:11:06;;;;;;;13.20;4.18;;;;;;;;;;4717960;30;20045;-84
2024/02/07 07:13:32;;;;;;;13.82;2.67;;;;;;;;;;4737050;30;20043;-84
2024/02/07 07:15:58;;;;;;;13.85;3.65;;;;;;;;;;4730039;30;20037;-85
2024/02/07 07:18:24;;;;;;;12.65;5.32;;;;;;;;;;4726502;30;20097;-84
2024/02/07 07:20:50;;;;;;;12.35;3.35;;;;;;;;;;4721958;30;20028;-83
2024/02/07 07:23:16;;;;;;;18.52;4.78;;;;;;;;;;4728153;30;20460;-82
2024/02/07 07:25:43;;;;;;;8.35;2.83;;;;;;;;;;4725482;30;20037;-84
2024/02/07 07:28:09;;;;;;;17.08;3.88;;;;;;;;;;4733358;30;20102;-82
2024/02/07 07:30:35;;;;;;;10.98;4.90;;;;;;;;;;4736178;30;20068;-82
2024/02/07 07:33:02;;;;;;;21.60;6.53;;;;;;;;;;4735283;30;20109;-82
2024/02/07 07:35:28;;;;;;;12.45;2.58;;;;;;;;;;4733080;30;20064;-81
2024/02/07 07:37:56;;;;;;;9.70;3.00;;;;;;;;;;4729411;30;20060;-82
2024/02/07 07:40:23;;;;;;;13.38;2.38;;;;;;;;;;4728758;30;20476;-82
2024/02/07 07:42:49;;;;;;;16.17;5.00;;;;;;;;;;4733925;30;20453;-82
2024/02/07 07:45:15;;;;;;;9.63;3.35;;;;;;;;;;4754073;30;20479;-83
2024/02/07 07:47:41;;;;;;;14.45;4.05;;;;;;;;;;4746959;30;20045;-83
2024/02/07 07:50:07;;;;;;;13.13;3.30;;;;;;;;;;4737037;30;20573;-83
2024/02/07 07:52:33;;;;;;;13.30;3.88;;;;;;;;;;4737009;30;20383;-83
2024/02/07 07:54:59;;;;;;;8.90;3.13;;;;;;;;;;4744848;30;20048;-84
2024/02/07 07:57:25;;;;;;;7.65;2.38;;;;;;;;;;4748695;30;20089;-81
2024/02/07 07:59:51;;;;;;;10.90;3.88;;;;;;;;;;4734005;30;20047;-84
2024/02/07 08:02:20;;;;;;;12.68;3.75;;;;;;;;;;4742783;30;20033;-82
2024/02/07 08:04:46;;;;;;;8.95;2.97;;;;;;;;;;4757796;30;20036;-83
2024/02/07 08:07:12;;;;;;;15.00;3.45;;;;;;;;;;4740495;30;20028;-83
2024/02/07 08:09:41;;;;;;;11.93;2.65;;;;;;;;;;4739175;30;20102;-83
2024/02/07 08:12:07;;;;;;;5.57;2.90;;;;;;;;;;4734684;30;20775;-80
2024/02/07 08:14:33;;;;;;;9.30;2.78;;;;;;;;;;4733162;30;20036;-80
2024/02/07 08:16:59;;;;;;;8.85;2.38;;;;;;;;;;4742234;30;20062;-82
2024/02/07 08:19:25;;;;;;;12.60;2.45;;;;;;;;;;4738382;30;20547;-84
2024/02/07 08:35:04;;;;;;;9.60;2.50;;;;;;;;;;4752278;30;20499;-85
2024/02/07 08:41:00;;;;;;;7.65;2.63;;;;;;;;;;4697851;30;20069;-81
2024/02/07 08:43:29;;;;;;;5.93;2.17;;;;;;;;;;4692942;30;20132;-83
2024/02/07 08:45:57;;;;;;;18.48;3.42;;;;;;;;;;4684760;30;20038;-81
2024/02/07 08:48:28;;;;;;;9.25;3.97;;;;;;;;;;4684685;30;20967;-83
2024/02/07 08:50:54;;;;;;;8.35;2.63;;;;;;;;;;4718504;30;20049;-83
2024/02/07 08:53:20;;;;;;;5.82;1.88;;;;;;;;;;4734384;30;20054;-83
2024/02/07 08:55:46;;;;;;;16.13;3.83;;;;;;;;;;4732934;30;20552;-84
2024/02/07 08:58:12;;;;;;;23.45;4.47;;;;;;;;;;4766028;24;20067;-85
2024/02/07 09:00:40;;;;;;;10.93;3.03;;;;;;;;;;4741312;30;20055;-84
2024/02/07 09:03:07;;;;;;;7.55;2.38;;;;;;;;;;4737786;30;20036;-86
2024/02/07 09:05:38;;;;;;;;;;;;;;;;;;4749029;30;20040;-81
2024/02/07 09:08:16;;;;;;;;;;;;;;;;;;4750968;30;19960;-81
2024/02/07 09:10:45;;;;;;;;;;;;;;;;;;4727553;30;20444;-82
2024/02/07 09:16:02;;;;;;;;;;;;;;;;;;2481159;24;20334;-83
2024/02/07 09:18:38;;;;;;;;;;;;;;;;;;4725528;30;19933;-83
2024/02/07 09:24:15;;;;;;;11.70;2.93;;;;;;;;;;4753167;30;20741;-82
2024/02/07 09:27:19;;;;;;;4.63;1.50;;;;;;;;;;4729246;30;20295;-82
2024/02/07 09:30:06;;;;;;;7.10;2.15;;;;;;;;;;4682330;30;20130;-84
2024/02/07 09:36:07;;;;;;;7.78;2.47;;;;;;;;;;4674413;30;20041;-83
2024/02/07 09:38:33;;;;;;;8.52;2.63;;;;;;;;;;4669893;30;20044;-83
2024/02/07 09:40:59;;;;;;;8.65;2.50;;;;;;;;;;4716278;30;20099;-83
2024/02/07 09:43:25;;;;;;;9.80;1.70;;;;;;;;;;4713004;30;20119;-83
2024/02/07 09:45:59;;;;;;;11.23;2.78;;;;;;;;;;4726109;30;20461;-83
2024/02/07 09:48:26;;;;;;;11.00;3.58;;;;;;;;;;4722169;30;20079;-84
2024/02/07 09:50:58;;;;;;;6.53;1.58;;;;;;;;;;4726615;30;20055;-84
2024/02/07 09:53:25;;;;;;;9.07;1.90;;;;;;;;;;4728246;30;20048;-85
2024/02/07 09:55:52;;;;;;;5.47;1.90;;;;;;;;;;4728862;30;20076;-85
2024/02/07 09:58:19;;;;;;;10.57;2.08;;;;;;;;;;4713941;30;20106;-84
2024/02/07 10:00:54;;;;;;;14.32;2.80;;;;;;;;;;4724938;30;20138;-83
2024/02/07 10:03:24;;;;;;;5.75;1.40;;;;;;;;;;4730419;30;20048;-85
2024/02/07 10:05:51;;;;;;;5.88;2.28;;;;;;;;;;4737477;30;20066;-85
2024/02/07 10:08:17;;;;;;;7.93;1.63;;;;;;;;;;4735067;30;20135;-85
2024/02/07 10:10:47;;;;;;;7.35;2.17;;;;;;;;;;4732949;30;20051;-85
2024/02/07 10:13:15;;;;;;;8.70;2.55;;;;;;;;;;4741221;30;20174;-85
2024/02/07 10:15:42;;;;;;;5.75;2.47;;;;;;;;;;4729560;30;20611;-85
2024/02/07 10:18:08;;;;;;;8.65;1.80;;;;;;;;;;4720931;30;20048;-85
2024/02/07 10:20:34;;;;;;;9.00;2.92;;;;;;;;;;4740043;30;20443;-84
2024/02/07 10:23:00;;;;;;;6.32;1.73;;;;;;;;;;4730028;30;20044;-85
2024/02/07 10:25:26;;;;;;;12.30;1.80;;;;;;;;;;4724942;30;20051;-85
2024/02/07 10:28:01;;;;;;;5.40;1.83;;;;;;;;;;4724989;30;20074;-85
2024/02/07 10:30:30;;;;;;;10.02;2.90;;;;;;;;;;4735070;30;20083;-84
2024/02/07 10:32:59;;;;;;;11.07;2.90;;;;;;;;;;4730959;30;20054;-84
2024/02/07 10:35:25;;;;;;;6.03;1.92;;;;;;;;;;4737586;30;20086;-85
2024/02/07 10:37:53;;;;;;;19.50;2.63;;;;;;;;;;4732765;30;20036;-84
2024/02/07 10:40:19;;;;;;;9.18;2.80;;;;;;;;;;4729905;30;20062;-84
2024/02/07 10:42:52;;;;;;;5.00;1.58;;;;;;;;;;4728889;30;20090;-83
2024/02/07 10:45:18;;;;;;;2.58;1.05;;;;;;;;;;4747895;30;20040;-81
2024/02/07 10:47:44;;;;;;;10.30;2.00;;;;;;;;;;4733163;30;20048;-82
2024/02/07 10:50:11;;;;;;;5.65;1.65;;;;;;;;;;4733532;30;20036;-82
2024/02/07 10:52:40;;;;;;;8.02;1.98;;;;;;;;;;4742689;30;20141;-83
2024/02/07 10:55:07;;;;;;;5.32;1.73;;;;;;;;;;4729326;30;20086;-82
2024/02/07 10:57:38;;;;;;;5.97;1.50;;;;;;;;;;4732206;30;20439;-82
2024/02/07 11:00:06;;;;;;;7.20;2.42;;;;;;;;;;4732688;30;20032;-81
2024/02/07 11:02:33;;;;;;;5.90;2.50;;;;;;;;;;4749203;30;20063;-82
2024/02/07 11:05:00;;;;;;;4.68;1.67;;;;;;;;;;4751426;30;20050;-82
2024/02/07 11:07:26;;;;;;;4.75;1.42;;;;;;;;;;4752525;30;20044;-81
2024/02/07 11:09:53;;;;;;;4.25;2.03;;;;;;;;;;4751564;30;20418;-81
2024/02/07 11:12:19;;;;;;;5.28;1.45;;;;;;;;;;4747885;30;20044;-82
2024/02/07 11:14:46;;;;;;;7.00;2.67;;;;;;;;;;4747542;30;20042;-81
2024/02/07 11:17:13;;;;;;;3.42;0.82;;;;;;;;;;4750808;30;20067;-83
2024/02/07 11:19:39;;;;;;;1.92;0.70;;;;;;;;;;4746676;30;20039;-82
2024/02/07 11:22:06;;;;;;;2.17;0.55;;;;;;;;;;4748062;30;20119;-82
2024/02/07 11:24:33;;;;;;;5.70;0.80;;;;;;;;;;4746354;30;20032;-81
2024/02/07 11:27:00;;;;;;;5.75;0.57;;;;;;;;;;4750150;30;20082;-83
2024/02/07 11:29:27;;;;;;;1.73;0.50;;;;;;;;;;4739093;30;20131;-84
2024/02/07 11:31:54;;;;;;;3.60;1.13;;;;;;;;;;4740398;30;20054;-83
2024/02/07 11:34:20;;;;;;;4.38;1.65;;;;;;;;;;4757839;30;20522;-85
2024/02/07 11:36:55;;;;;;;5.40;1.33;;;;;;;;;;4736368;30;20056;-84
2024/02/07 11:39:22;;;;;;;6.57;1.70;;;;;;;;;;4735455;30;20068;-83
2024/02/07 11:41:49;;;;;;;4.60;1.25;;;;;;;;;;4742744;30;20116;-83
2024/02/07 11:44:15;;;;;;;2.88;1.23;;;;;;;;;;4736375;30;20473;-81
2024/02/07 11:46:55;;;;;;;6.43;2.35;;;;;;;;;;4737944;30;20047;-82
2024/02/07 11:49:28;;;;;;;3.38;0.88;;;;;;;;;;4745018;30;20029;-83
2024/02/07 11:52:00;;;;;;;3.28;0.85;;;;;;;;;;4750725;30;20515;-88
2024/02/07 11:54:40;;;;;;;2.78;0.68;;;;;;;;;;4724512;30;20051;-86
2024/02/07 12:00:14;;;;;;;1.88;1.00;;;;;;;;;;4720144;30;20048;-87
2024/02/07 12:13:09;;;;;;;4.63;0.63;;;;;;;;;;4737958;30;20056;-85
2024/02/07 12:15:36;;;;;;;8.52;0.57;;;;;;;;;;4727653;30;20033;-85
2024/02/07 12:18:15;;;;;;;1.92;0.40;;;;;;;;;;4728341;30;20033;-85
2024/02/07 12:21:08;;;;;;;2.72;1.88;;;;;;;;;;4740152;24;20533;-85
2024/02/07 12:23:35;;;;;;;5.97;1.05;;;;;;;;;;4728512;30;20052;-84
2024/02/07 12:26:02;;;;;;;1.95;0.68;;;;;;;;;;4710153;30;20045;-84
2024/02/07 12:28:28;;;;;;;7.25;0.75;;;;;;;;;;4730578;30;20511;-84
2024/02/07 12:30:55;;;;;;;6.50;0.50;;;;;;;;;;4728273;30;20049;-84
2024/02/07 12:33:22;;;;;;;3.92;0.88;;;;;;;;;;4711900;30;20039;-84
2024/02/07 12:44:08;;;;;;;1.30;0.43;;;;;;;;;;4816444;24;20056;-84
2024/02/07 12:46:34;;;;;;;5.70;1.27;;;;;;;;;;4735145;30;20063;-83
2024/02/07 12:49:00;;;;;;;0.85;0.10;;;;;;;;;;4738127;30;20135;-82
2024/02/07 12:51:26;;;;;;;0.73;0.40;;;;;;;;;;4738515;30;20119;-82
2024/02/07 12:53:52;;;;;;;2.40;0.38;;;;;;;;;;4757596;30;20052;-83
2024/02/07 12:56:21;;;;;;;1.42;0.30;;;;;;;;;;4743804;30;20076;-83
2024/02/07 12:58:48;;;;;;;1.42;0.20;;;;;;;;;;4738994;30;20075;-83
2024/02/07 13:01:19;;;;;;;10.73;0.45;;;;;;;;;;4754861;30;20483;-84
2024/02/07 13:03:48;;;;;;;2.42;0.40;;;;;;;;;;4738842;30;20044;-84
2024/02/07 13:09:33;;;;;;;3.53;0.60;;;;;;;;;;4943462;24;20064;-85
2024/02/07 13:11:59;;;;;;;3.03;0.50;;;;;;;;;;4720803;30;20091;-84
2024/02/07 13:14:25;;;;;;;3.88;0.60;;;;;;;;;;4721000;30;20045;-84
2024/02/07 13:16:52;;;;;;;0.40;0.20;;;;;;;;;;4716168;30;20029;-84
2024/02/07 13:25:12;;;;;;;2.00;0.55;;;;;;;;;;4742454;30;20542;-84
2024/02/07 13:28:12;;;;;;;;;;;;;;;;;;;;;
2024/02/07 13:30:38;;;;;;;0.65;0.25;;;;;;;;;;4710523;30;20045;-82
2024/02/07 13:33:05;;;;;;;1.65;0.43;;;;;;;;;;4754624;30;20044;-83
2024/02/07 13:35:43;;;;;;;1.67;0.30;;;;;;;;;;4754622;30;20028;-83
2024/02/07 13:38:25;;;;;;;0.85;0.30;;;;;;;;;;4752695;30;20476;-84
2024/02/07 13:41:02;;;;;;;4.80;0.47;;;;;;;;;;4752896;30;20043;-84
2024/02/07 13:43:28;;;;;;;3.30;0.47;;;;;;;;;;4738433;30;20037;-83
2024/02/07 13:49:09;;;;;;;;;;;;;;;;;;;;;
2024/02/07 13:51:36;;;;;;;2.67;0.47;;;;;;;;;;4734489;30;20045;-84
2024/02/07 13:54:05;;;;;;;0.80;0.38;;;;;;;;;;4740327;30;20044;-83
2024/02/07 14:02:42;;;;;;;1.95;0.40;;;;;;;;;;4736349;30;20423;-83
2024/02/07 14:05:11;;;;;;;0.50;0.17;;;;;;;;;;4720107;30;20036;-83
2024/02/07 14:08:14;;;;;;;3.55;0.20;;;;;;;;;;4725106;30;20108;-85
2024/02/07 14:10:40;;;;;;;1.75;0.35;;;;;;;;;;4711202;30;20041;-83
2024/02/07 14:13:07;;;;;;;3.22;0.30;;;;;;;;;;4718823;30;20092;-85
2024/02/07 14:15:33;;;;;;;3.55;0.30;;;;;;;;;;4729002;30;20584;-83
2024/02/07 14:18:00;;;;;;;1.63;0.40;;;;;;;;;;4725852;30;20127;-82
2024/02/07 14:20:26;;;;;;;2.17;0.47;;;;;;;;;;4729392;30;20033;-83
2024/02/07 14:22:52;;;;;;;0.60;0.32;;;;;;;;;;4719287;30;20042;-82
2024/02/07 14:25:18;;;;;;;1.55;0.30;;;;;;;;;;4735214;30;20123;-83
2024/02/07 14:27:44;;;;;;;2.58;0.40;;;;;;;;;;4734807;30;20484;-84
2024/02/07 14:30:10;;;;;;;2.22;0.43;;;;;;;;;;4712912;30;20411;-83
2024/02/07 14:32:36;;;;;;;1.60;0.32;;;;;;;;;;4716048;30;20091;-82
2024/02/07 14:35:03;;;;;;;1.50;0.43;;;;;;;;;;4721500;30;20064;-84
2024/02/07 14:37:31;;;;;;;4.97;0.43;;;;;;;;;;4715370;30;20043;-84
2024/02/07 14:40:01;;;;;;;1.30;0.38;;;;;;;;;;4733775;30;20033;-84
2024/02/07 14:42:33;;;;;;;0.30;0.20;;;;;;;;;;4735465;30;20477;-83
2024/02/07 14:45:17;;;;;;;;;;;;;;;;;;4720492;30;20037;-84
2024/02/07 14:47:43;;;;;;;1.60;0.30;;;;;;;;;;4719792;30;19918;-84
2024/02/07 14:50:09;;;;;;;2.03;0.40;;;;;;;;;;4721230;30;20422;-84
2024/02/07 14:52:35;;;;;;;2.95;0.65;;;;;;;;;;4742293;30;20431;-84
2024/02/07 14:55:01;;;;;;;2.50;0.40;;;;;;;;;;4720246;30;20036;-82
2024/02/07 14:57:28;;;;;;;1.65;0.47;;;;;;;;;;4721153;30;20048;-82
2024/02/07 14:59:54;;;;;;;1.30;0.40;;;;;;;;;;4731992;30;20500;-81
2024/02/07 15:02:25;;;;;;;0.98;0.50;;;;;;;;;;4738846;30;20133;-84
2024/02/07 15:04:52;;;;;;;2.22;0.70;;;;;;;;;;4722636;30;20041;-81
2024/02/07 15:07:17;;;;;;;1.27;0.32;;;;;;;;;;4731370;30;20036;-82
2024/02/07 15:09:44;;;;;;;0.63;0.35;;;;;;;;;;4739160;30;20059;-84
2024/02/07 15:12:10;;;;;;;0.88;0.30;;;;;;;;;;4722593;30;20476;-84
2024/02/07 15:14:35;;;;;;;5.35;0.20;;;;;;;;;;4721935;30;20039;-82
2024/02/07 15:17:02;;;;;;;0.82;0.13;;;;;;;;;;4719059;30;20056;-80
2024/02/07 15:19:28;;;;;;;3.03;0.60;;;;;;;;;;4733679;30;21590;-81
2024/02/07 15:21:54;;;;;;;4.03;0.70;;;;;;;;;;4721115;30;20052;-81
2024/02/07 15:24:20;;;;;;;1.30;0.43;;;;;;;;;;4728966;30;20033;-82
2024/02/07 15:26:46;;;;;;;1.50;0.40;;;;;;;;;;4716055;30;20539;-81
2024/02/07 15:29:13;;;;;;;1.10;0.60;;;;;;;;;;4735232;30;20067;-80
2024/02/07 15:31:39;;;;;;;3.00;0.50;;;;;;;;;;4731858;30;20178;-82
2024/02/07 15:34:05;;;;;;;2.55;0.30;;;;;;;;;;4736076;30;20425;-83
2024/02/07 15:36:31;;;;;;;1.33;0.30;;;;;;;;;;4732697;30;20107;-83
2024/02/07 15:39:00;;;;;;;1.17;0.30;;;;;;;;;;4735552;30;20048;-83
2024/02/07 15:41:26;;;;;;;3.15;0.80;;;;;;;;;;4733534;30;20102;-82
2024/02/07 15:43:53;;;;;;;6.00;0.35;;;;;;;;;;4734833;30;20074;-81
2024/02/07 15:46:53;;;;;;;6.65;0.90;;;;;;;;;;4736859;30;20032;-84
2024/02/07 15:49:39;;;;;;;;;;;;;;;;;;;;;
2024/02/07 15:52:30;;;;;;;1.77;0.57;;;;;;;;;;4720947;30;20041;-84
2024/02/07 15:55:35;;;;;;;3.10;0.95;;;;;;;;;;4719090;30;20132;-83
2024/02/07 16:22:11;;;;;;;2.53;0.65;;;;;;;;;;4684001;30;20548;-82
2024/02/07 16:24:43;;;;;;;3.03;0.60;;;;;;;;;;4699907;30;20041;-80
2024/02/07 16:27:09;;;;;;;;;;;;;;;;;;4681338;30;20406;-82
2024/02/07 16:29:35;;;;;;;6.25;1.15;;;;;;;;;;4675886;30;19915;-82
2024/02/07 16:32:01;;;;;;;5.18;0.70;;;;;;;;;;4682042;30;20145;-80
2024/02/07 16:34:30;;;;;;;2.97;0.70;;;;;;;;;;4709963;30;20135;-80
2024/02/07 16:36:58;;;;;;;12.05;2.20;;;;;;;;;;4726965;30;20045;-83
2024/02/07 16:39:24;;;;;;;8.95;1.73;;;;;;;;;;4731483;30;20041;-84
2024/02/07 16:41:53;;;;;;;6.57;1.95;;;;;;;;;;4737423;30;20040;-85
2024/02/07 16:44:19;;;;;;;7.78;1.90;;;;;;;;;;4721800;30;20794;-83
2024/02/07 16:46:45;;;;;;;7.68;2.00;;;;;;;;;;4716650;30;20542;-82
2024/02/07 16:49:11;;;;;;;29.20;6.97;;;;;;;;;;4728204;30;20036;-82
2024/02/07 16:51:40;;;;;;;25.20;7.28;;;;;;;;;;4717522;30;20036;-81
2024/02/07 16:54:06;;;;;;;40.28;10.88;;;;;;;;;;4720626;30;20914;-81
2024/02/07 16:56:32;;;;;;;24.80;6.03;;;;;;;;;;4729875;30;20422;-82
2024/02/07 16:58:58;;;;;;;15.45;2.35;;;;;;;;;;4716342;30;20098;-82
2024/02/07 17:01:25;;;;;;;10.73;2.63;;;;;;;;;;4714366;30;20439;-82
2024/02/07 17:03:51;;;;;;;5.32;1.73;;;;;;;;;;4724398;30;20048;-81
2024/02/07 17:06:18;;;;;;;5.55;1.42;;;;;;;;;;4724798;30;20044;-83
2024/02/07 17:08:44;;;;;;;11.75;3.00;;;;;;;;;;4728847;30;20052;-80
2024/02/07 17:11:10;;;;;;;5.80;0.80;;;;;;;;;;4725582;30;20083;-80
2024/02/07 17:13:36;;;;;;;11.07;1.83;;;;;;;;;;4730332;30;20061;-79
2024/02/07 17:16:02;;;;;;;15.60;2.50;;;;;;;;;;4712250;30;20045;-80
2024/02/07 17:18:28;;;;;;;2.30;0.50;;;;;;;;;;4727278;30;20102;-80
2024/02/07 17:20:54;;;;;;;0.73;0.30;;;;;;;;;;4726542;30;20040;-80
2024/02/07 17:23:21;;;;;;;3.42;0.65;;;;;;;;;;4723005;30;20488;-83
2024/02/07 17:25:47;;;;;;;5.03;1.42;;;;;;;;;;4723600;30;20052;-84
2024/02/07 17:28:16;;;;;;;0.98;0.40;;;;;;;;;;4712466;30;20558;-80
2024/02/07 17:30:42;;;;;;;6.93;0.70;;;;;;;;;;4731287;30;20076;-81
2024/02/07 17:44:20;;;;;;;0.43;0.20;;;;;;;;;;4744703;30;20078;-82
2024/02/07 18:31:28;;;;;;;4.60;0.70;;;;;;;;;;4748805;30;20119;-81
2024/02/07 18:34:26;;;;;;;2.05;0.80;;;;;;;;;;4735152;30;20524;-81
2024/02/07 19:19:45;;;;;;;2.70;0.30;;;;;;;;;;4732621;30;20067;-82
2024/02/07 19:22:31;;;;;;;7.20;0.40;;;;;;;;;;4727486;30;20049;-81
2024/02/07 19:27:59;;;;;;;2.38;0.57;;;;;;;;;;4710679;30;20041;-81
2024/02/07 19:30:48;;;;;;;0.73;0.10;;;;;;;;;;4709744;30;20062;-82
2024/02/07 19:33:48;;;;;;;1.05;0.38;;;;;;;;;;4705998;30;20041;-81
2024/02/07 19:36:37;;;;;;;1.42;0.20;;;;;;;;;;4715583;30;20045;-82
2024/02/07 19:39:38;;;;;;;2.78;0.85;;;;;;;;;;4725080;30;20056;-81
2024/02/07 19:42:23;;;;;;;5.57;1.10;;;;;;;;;;4671668;30;20061;-82
2024/02/07 19:48:08;;;;;;;3.00;0.88;;;;;;;;;;4675399;30;20569;-82
2024/02/07 20:08:57;;;;;;;1.45;0.52;;;;;;;;;;4729124;30;20111;-81
2024/02/07 20:14:37;;;;;;;2.70;0.80;;;;;;;;;;4731988;30;20095;-82
2024/02/07 20:17:09;;;;;;;1.45;0.70;;;;;;;;;;4711939;30;20127;-81
2024/02/07 20:19:38;;;;;;;1.95;0.43;;;;;;;;;;4732803;30;20625;-83
2024/02/07 20:22:07;;;;;;;4.95;0.68;;;;;;;;;;4703168;30;20079;-81
2024/02/07 20:24:33;;;;;;;3.13;1.30;;;;;;;;;;4714588;30;20068;-82
2024/02/07 20:27:08;;;;;;;3.35;0.75;;;;;;;;;;4701195;30;20045;-83
2024/02/07 20:29:55;;;;;;;3.15;0.90;;;;;;;;;;4702373;30;20447;-84
2024/02/07 22:02:03;;;;;;;6.18;1.52;;;;;;;;;;4748703;29;20488;-83
2024/02/07 22:50:01;;;;;;;5.63;2.15;;;;;;;;;;4753280;30;20043;-83
2024/02/07 23:41:22;;;;;;;;;;;;;;;;;;;;;
2024/02/07 23:44:09;;;;;;;8.52;2.33;;;;;;;;;;4666310;30;20451;-82
2024/02/07 23:47:26;;;;;;;5.38;1.55;;;;;;;;;;4669557;30;20108;-83
2024/02/07 23:56:31;;;;;;;7.63;1.27;;;;;;;;;;4701543;30;20044;-83
